createdAt,value
2018-08-09T00:01:28.291Z,3.50
2018-08-09T00:03:57.053Z,4.53
2018-08-09T00:06:25.413Z,4.20
2018-08-09T00:08:53.816Z,6.40
2018-08-09T00:11:22.144Z,4.33
2018-08-09T00:13:50.457Z,3.73
2018-08-09T00:16:18.824Z,3.40
2018-08-09T00:18:47.144Z,3.80
2018-08-09T00:21:15.515Z,4.57
2018-08-09T00:23:44.067Z,3.80
2018-08-09T00:26:12.452Z,4.00
2018-08-09T00:28:40.890Z,3.80
2018-08-09T00:31:09.444Z,4.10
2018-08-09T00:33:37.860Z,5.30
2018-08-09T00:36:06.241Z,4.80
2018-08-09T00:38:34.673Z,4.80
2018-08-09T00:41:03.099Z,4.17
2018-08-09T00:43:31.479Z,4.90
2018-08-09T00:45:59.921Z,3.87
2018-08-09T00:48:28.339Z,4.30
2018-08-09T00:50:56.780Z,4.50
2018-08-09T00:53:25.131Z,4.60
2018-08-09T00:55:53.472Z,4.60
2018-08-09T00:58:21.813Z,4.27
2018-08-09T01:00:50.216Z,4.93
2018-08-09T01:03:18.561Z,4.10
2018-08-09T01:05:46.937Z,4.00
2018-08-09T01:08:15.292Z,3.43
2018-08-09T01:10:43.706Z,4.03
2018-08-09T01:13:12.065Z,3.47
2018-08-09T01:15:40.529Z,3.37
2018-08-09T01:18:09.581Z,3.77
2018-08-09T01:20:37.949Z,3.33
2018-08-09T01:23:06.383Z,3.60
2018-08-09T01:25:34.804Z,3.60
2018-08-09T01:28:03.251Z,3.40
2018-08-09T01:30:31.595Z,3.47
2018-08-09T01:33:00.033Z,3.40
2018-08-09T01:35:28.359Z,4.30
2018-08-09T01:37:56.712Z,3.63
2018-08-09T01:40:25.009Z,4.70
2018-08-09T01:43:04.645Z,4.10
2018-08-09T01:45:33.080Z,3.20
2018-08-09T01:48:01.490Z,5.37
2018-08-09T01:50:29.813Z,4.17
2018-08-09T01:52:58.120Z,4.40
2018-08-09T01:55:26.450Z,3.60
2018-08-09T01:57:54.840Z,3.90
2018-08-09T02:00:23.181Z,3.90
2018-08-09T02:02:51.484Z,3.43
2018-08-09T02:05:19.829Z,4.20
2018-08-09T02:07:48.127Z,3.90
2018-08-09T02:10:16.392Z,3.40
2018-08-09T02:12:44.733Z,3.83
2018-08-09T02:15:13.109Z,3.80
2018-08-09T02:17:41.452Z,4.60
2018-08-09T02:20:09.844Z,3.60
2018-08-09T02:22:38.298Z,6.10
2018-08-09T02:25:06.612Z,3.80
2018-08-09T02:27:35.070Z,4.43
2018-08-09T02:30:03.465Z,3.40
2018-08-09T02:32:31.849Z,3.87
2018-08-09T02:35:00.223Z,4.00
2018-08-09T02:37:28.583Z,3.20
2018-08-09T02:39:57.036Z,3.73
2018-08-09T02:42:25.364Z,3.67
2018-08-09T02:44:53.812Z,3.90
2018-08-09T02:47:22.136Z,3.87
2018-08-09T02:49:50.640Z,4.23
2018-08-09T02:52:19.016Z,4.17
2018-08-09T02:54:47.362Z,3.70
2018-08-09T02:57:15.721Z,3.87
2018-08-09T02:59:44.051Z,3.50
2018-08-09T03:02:12.416Z,4.70
2018-08-09T03:04:40.758Z,4.10
2018-08-09T03:07:09.203Z,3.43
2018-08-09T03:09:37.567Z,3.43
2018-08-09T03:12:05.919Z,3.87
2018-08-09T03:14:34.343Z,5.30
2018-08-09T03:17:02.702Z,3.90
2018-08-09T03:19:31.050Z,4.33
2018-08-09T03:21:59.748Z,3.60
2018-08-09T03:24:28.233Z,3.97
2018-08-09T03:26:56.552Z,3.80
2018-08-09T03:29:24.934Z,3.90
2018-08-09T03:31:53.353Z,3.50
2018-08-09T03:34:21.676Z,4.43
2018-08-09T03:36:50.091Z,4.63
2018-08-09T03:39:18.505Z,3.30
2018-08-09T03:41:47.075Z,3.70
2018-08-09T03:44:15.426Z,6.87
2018-08-09T03:46:43.813Z,3.70
2018-08-09T03:49:12.160Z,3.37
2018-08-09T03:51:40.474Z,4.43
2018-08-09T03:54:08.778Z,4.07
2018-08-09T03:56:37.112Z,4.10
2018-08-09T03:59:05.498Z,6.00
2018-08-09T04:01:33.889Z,3.93
2018-08-09T04:04:05.584Z,3.30
2018-08-09T04:06:34.421Z,3.00
2018-08-09T04:09:03.013Z,4.03
2018-08-09T04:11:31.891Z,3.93
2018-08-09T04:14:00.866Z,3.80
2018-08-09T04:16:29.469Z,3.30
2018-08-09T04:18:58.236Z,3.57
2018-08-09T04:21:27.009Z,4.40
2018-08-09T04:23:55.693Z,3.07
2018-08-09T04:26:24.344Z,3.57
2018-08-09T04:28:52.780Z,3.93
2018-08-09T04:31:21.225Z,4.90
2018-08-09T04:33:49.841Z,4.00
2018-08-09T04:36:18.703Z,4.30
2018-08-09T04:38:47.530Z,3.63
2018-08-09T04:41:16.168Z,4.03
2018-08-09T04:43:45.021Z,3.80
2018-08-09T04:46:13.975Z,3.70
2018-08-09T04:48:42.594Z,4.10
2018-08-09T04:51:11.623Z,4.17
2018-08-09T04:53:40.285Z,3.57
2018-08-09T04:56:09.217Z,3.70
2018-08-09T04:58:37.842Z,3.60
2018-08-09T05:01:06.474Z,3.47
2018-08-09T05:03:35.005Z,3.50
2018-08-09T05:06:03.640Z,3.43
2018-08-09T05:08:32.125Z,3.13
2018-08-09T05:11:00.698Z,3.43
2018-08-09T05:13:29.570Z,4.17
2018-08-09T05:15:58.291Z,3.40
2018-08-09T05:18:27.062Z,5.43
2018-08-09T05:20:55.998Z,3.23
2018-08-09T05:23:25.243Z,3.70
2018-08-09T05:25:54.472Z,3.13
2018-08-09T05:28:23.441Z,3.20
2018-08-09T05:30:53.671Z,3.73
2018-08-09T05:33:24.329Z,3.40
2018-08-09T05:35:54.506Z,4.23
2018-08-09T05:38:25.791Z,4.17
2018-08-09T05:40:56.739Z,3.80
2018-08-09T05:43:25.642Z,3.23
2018-08-09T05:45:54.257Z,3.90
2018-08-09T05:48:22.801Z,3.53
2018-08-09T05:50:51.419Z,3.73
2018-08-09T05:53:19.979Z,3.67
2018-08-09T05:55:48.555Z,4.10
2018-08-09T05:58:17.291Z,4.70
2018-08-09T06:00:46.137Z,4.00
2018-08-09T06:03:14.932Z,3.87
2018-08-09T06:05:43.880Z,4.67
2018-08-09T06:08:12.519Z,4.87
2018-08-09T06:10:41.178Z,3.60
2018-08-09T06:13:09.825Z,3.73
2018-08-09T06:15:38.541Z,3.97
2018-08-09T06:18:07.526Z,4.27
2018-08-09T06:20:36.030Z,4.07
2018-08-09T06:23:04.935Z,3.80
2018-08-09T06:25:33.690Z,3.40
2018-08-09T06:28:02.454Z,4.30
2018-08-09T06:30:31.299Z,3.93
2018-08-09T06:32:59.777Z,4.17
2018-08-09T06:35:28.216Z,4.60
2018-08-09T06:37:56.720Z,4.40
2018-08-09T06:40:25.162Z,4.30
2018-08-09T06:42:53.501Z,4.03
2018-08-09T06:45:22.005Z,4.27
2018-08-09T06:47:50.351Z,4.87
2018-08-09T06:50:19.041Z,4.73
2018-08-09T06:52:47.780Z,3.80
2018-08-09T06:58:02.672Z,5.10
2018-08-09T07:00:34.160Z,5.20
2018-08-09T07:03:02.831Z,5.30
2018-08-09T07:05:31.460Z,5.77
2018-08-09T07:08:00.304Z,4.30
2018-08-09T07:10:29.028Z,5.30
2018-08-09T07:12:57.725Z,5.10
2018-08-09T07:15:32.544Z,5.60
2018-08-09T07:18:01.272Z,5.00
2018-08-09T07:20:32.282Z,4.50
2018-08-09T07:23:04.867Z,5.70
2018-08-09T07:25:33.445Z,5.30
2018-08-09T07:28:02.243Z,5.77
2018-08-09T07:30:30.637Z,5.63
2018-08-09T07:32:59.110Z,4.77
2018-08-09T07:35:29.555Z,6.30
2018-08-09T07:37:59.164Z,7.13
2018-08-09T07:40:27.967Z,5.90
2018-08-09T07:42:58.418Z,6.27
2018-08-09T07:45:27.292Z,6.90
2018-08-09T07:47:58.936Z,6.87
2018-08-09T07:50:27.559Z,7.50
2018-08-09T07:52:56.962Z,6.40
2018-08-09T07:55:25.449Z,6.40
2018-08-09T07:57:56.984Z,7.57
2018-08-09T08:00:27.002Z,7.73
2018-08-09T08:02:56.050Z,6.43
2018-08-09T08:05:25.169Z,7.80
2018-08-09T08:07:53.810Z,6.50
2018-08-09T08:10:22.709Z,6.50
2018-08-09T08:12:52.100Z,7.27
2018-08-09T08:15:21.974Z,7.50
2018-08-09T08:17:51.403Z,7.53
2018-08-09T08:20:20.982Z,7.40
2018-08-09T08:22:50.419Z,8.37
2018-08-09T08:25:20.248Z,8.00
2018-08-09T08:27:48.699Z,8.40
2018-08-09T08:30:17.213Z,8.17
2018-08-09T08:32:45.593Z,7.97
2018-08-09T08:35:15.925Z,8.13
2018-08-09T08:37:45.269Z,8.70
2018-08-09T08:40:16.143Z,8.70
2018-08-09T08:42:44.940Z,8.57
2018-08-09T08:45:14.299Z,8.97
2018-08-09T08:47:43.092Z,8.10
2018-08-09T08:50:12.000Z,7.80
2018-08-09T08:52:40.347Z,8.17
2018-08-09T08:55:10.238Z,8.77
2018-08-09T08:57:38.584Z,7.77
2018-08-09T09:00:08.552Z,7.43
2018-08-09T09:02:37.098Z,8.40
2018-08-09T09:05:07.101Z,7.50
2018-08-09T09:07:35.736Z,7.60
2018-08-09T09:10:04.483Z,7.00
2018-08-09T09:12:32.769Z,6.80
2018-08-09T09:15:01.165Z,7.00
2018-08-09T09:17:29.578Z,6.80
2018-08-09T09:19:58.494Z,7.07
2018-08-09T09:22:27.027Z,7.60
2018-08-09T09:24:55.617Z,7.80
2018-08-09T09:27:24.025Z,7.80
2018-08-09T09:29:52.376Z,7.00
2018-08-09T09:32:20.709Z,8.20
2018-08-09T09:34:49.136Z,7.37
2018-08-09T09:37:17.513Z,7.30
2018-08-09T09:39:45.838Z,8.07
2018-08-09T09:42:14.506Z,7.23
2018-08-09T09:44:43.086Z,6.90
2018-08-09T09:47:11.464Z,7.07
2018-08-09T09:49:39.769Z,6.73
2018-08-09T09:52:08.083Z,7.13
2018-08-09T09:54:36.817Z,6.93
2018-08-09T09:57:05.200Z,7.93
2018-08-09T09:59:33.564Z,6.67
2018-08-09T10:02:02.106Z,8.13
2018-08-09T10:04:30.507Z,7.47
2018-08-09T10:06:59.000Z,8.50
2018-08-09T10:09:27.477Z,6.07
2018-08-09T10:11:55.863Z,6.77
2018-08-09T10:14:24.223Z,7.33
2018-08-09T10:16:52.536Z,6.33
2018-08-09T10:19:20.858Z,7.80
2018-08-09T10:21:49.221Z,6.70
2018-08-09T10:24:17.600Z,7.13
2018-08-09T10:26:45.981Z,7.00
2018-08-09T10:29:14.310Z,6.57
2018-08-09T10:31:42.711Z,6.50
2018-08-09T10:34:11.069Z,7.17
2018-08-09T10:36:40.513Z,7.27
2018-08-09T10:39:12.034Z,6.90
2018-08-09T10:41:40.443Z,6.40
2018-08-09T10:44:09.300Z,6.40
2018-08-09T10:46:37.700Z,6.17
2018-08-09T10:49:06.318Z,7.10
2018-08-09T10:51:35.204Z,6.80
2018-08-09T10:54:03.653Z,6.97
2018-08-09T10:56:32.048Z,6.43
2018-08-09T11:01:44.662Z,6.73
2018-08-09T11:04:19.054Z,7.57
2018-08-09T11:06:48.440Z,7.50
2018-08-09T11:09:21.061Z,7.13
2018-08-09T11:11:50.470Z,6.33
2018-08-09T11:14:19.576Z,6.97
2018-08-09T11:16:49.614Z,6.20
2018-08-09T11:19:19.444Z,6.27
2018-08-09T11:21:51.832Z,6.20
2018-08-09T11:24:20.969Z,6.60
2018-08-09T11:26:52.350Z,7.00
2018-08-09T11:29:22.349Z,6.47
2018-08-09T11:31:57.069Z,6.43
2018-08-09T11:34:34.377Z,7.13
2018-08-09T11:37:06.643Z,6.10
2018-08-09T11:39:35.400Z,6.90
2018-08-09T11:42:04.301Z,6.40
2018-08-09T11:44:32.809Z,6.10
2018-08-09T11:47:02.355Z,5.50
2018-08-09T11:49:31.829Z,6.07
2018-08-09T11:52:01.369Z,5.67
2018-08-09T11:54:32.449Z,5.50
2018-08-09T11:57:04.326Z,5.83
2018-08-09T11:59:32.836Z,6.10
2018-08-09T12:02:03.889Z,6.43
2018-08-09T12:04:33.065Z,5.77
2018-08-09T12:07:05.917Z,5.53
2018-08-09T12:09:37.305Z,6.73
2018-08-09T12:12:06.898Z,6.20
2018-08-09T12:14:36.043Z,5.50
2018-08-09T12:17:04.762Z,6.10
2018-08-09T12:19:36.740Z,6.47
2018-08-09T12:22:08.025Z,6.37
2018-08-09T12:24:36.920Z,6.37
2018-08-09T12:27:08.692Z,6.53
2018-08-09T12:29:38.309Z,6.67
2018-08-09T12:32:08.049Z,6.43
2018-08-09T12:34:38.103Z,6.60
2018-08-09T12:37:08.876Z,6.20
2018-08-09T12:39:41.190Z,6.17
2018-08-09T12:42:10.269Z,6.33
2018-08-09T12:44:43.495Z,6.60
2018-08-09T12:47:13.601Z,6.60
2018-08-09T12:49:45.599Z,7.73
2018-08-09T12:52:21.693Z,7.20
2018-08-09T12:54:51.362Z,6.77
2018-08-09T12:57:23.361Z,7.70
2018-08-09T12:59:55.015Z,6.30
2018-08-09T13:02:23.916Z,6.90
2018-08-09T13:04:54.481Z,8.23
2018-08-09T13:07:25.871Z,7.40
2018-08-09T13:09:56.048Z,8.13
2018-08-09T13:12:27.415Z,6.47
2018-08-09T13:14:57.698Z,5.90
2018-08-09T13:17:28.454Z,5.50
2018-08-09T13:19:57.282Z,4.97
2018-08-09T13:22:32.206Z,4.60
2018-08-09T13:25:04.550Z,4.90
2018-08-09T13:27:35.450Z,6.20
2018-08-09T13:30:08.379Z,5.90
2018-08-09T13:32:37.585Z,7.70
2018-08-09T13:35:13.432Z,6.37
2018-08-09T13:37:53.353Z,5.80
2018-08-09T13:40:27.184Z,6.60
2018-08-09T13:42:57.057Z,6.00
2018-08-09T13:45:26.669Z,5.20
2018-08-09T13:47:56.259Z,6.30
2018-08-09T13:50:25.206Z,6.10
2018-08-09T13:52:54.689Z,5.13
2018-08-09T13:55:27.162Z,5.77
2018-08-09T13:57:57.692Z,7.73
2018-08-09T14:00:28.587Z,5.67
2018-08-09T14:02:57.335Z,5.70
2018-08-09T14:05:27.624Z,5.70
2018-08-09T14:07:56.784Z,4.23
2018-08-09T14:10:28.886Z,4.67
2018-08-09T14:12:59.188Z,5.13
2018-08-09T14:15:30.334Z,5.50
2018-08-09T14:18:00.216Z,4.90
2018-08-09T14:20:32.599Z,4.33
2018-08-09T14:23:01.909Z,4.57
2018-08-09T14:25:32.177Z,5.87
2018-08-09T14:28:07.973Z,8.43
2018-08-09T14:30:36.789Z,5.00
2018-08-09T14:33:05.894Z,4.60
2018-08-09T14:35:37.548Z,4.93
2018-08-09T14:38:07.121Z,5.10
2018-08-09T14:40:37.332Z,4.53
2018-08-09T14:43:07.652Z,4.57
2018-08-09T14:45:36.521Z,4.30
2018-08-09T14:48:07.951Z,4.67
2018-08-09T14:50:37.697Z,4.60
2018-08-09T14:53:08.395Z,4.30
2018-08-09T14:55:39.661Z,3.53
2018-08-09T14:58:09.829Z,4.30
2018-08-09T15:00:39.164Z,4.23
2018-08-09T15:03:08.143Z,3.70
2018-08-09T15:05:38.805Z,3.50
2018-08-09T15:08:08.110Z,3.33
2018-08-09T15:10:37.611Z,4.30
2018-08-09T15:13:10.371Z,4.43
2018-08-09T15:15:41.100Z,3.60
2018-08-09T15:18:10.050Z,4.07
2018-08-09T15:20:40.052Z,4.27
2018-08-09T15:23:08.921Z,3.40
2018-08-09T15:25:39.222Z,4.60
2018-08-09T15:28:09.218Z,3.70
2018-08-09T15:30:39.541Z,3.97
2018-08-09T15:33:09.198Z,4.50
2018-08-09T15:35:38.303Z,4.80
2018-08-09T15:38:09.006Z,4.23
2018-08-09T15:40:38.651Z,4.70
2018-08-09T15:43:07.492Z,5.13
2018-08-09T15:45:37.903Z,4.33
2018-08-09T15:48:07.143Z,4.23
2018-08-09T15:50:37.368Z,4.20
2018-08-09T15:53:07.250Z,4.47
2018-08-09T15:55:40.243Z,4.47
2018-08-09T15:58:11.628Z,4.93
2018-08-09T16:00:40.843Z,4.07
2018-08-09T16:03:09.643Z,3.93
2018-08-09T16:05:38.834Z,4.87
2018-08-09T16:08:09.641Z,4.30
2018-08-09T16:10:39.698Z,5.00
2018-08-09T16:13:16.334Z,4.23
2018-08-09T16:15:47.752Z,3.60
2018-08-09T16:18:24.961Z,5.47
2018-08-09T16:20:54.043Z,4.10
2018-08-09T16:23:23.284Z,4.23
2018-08-09T16:25:52.160Z,3.83
2018-08-09T16:28:21.428Z,4.33
2018-08-09T16:30:50.501Z,4.97
2018-08-09T16:33:20.977Z,4.27
2018-08-09T16:35:53.320Z,4.00
2018-08-09T16:38:24.221Z,4.50
2018-08-09T16:40:53.160Z,3.23
2018-08-09T16:43:22.236Z,3.87
2018-08-09T16:45:51.287Z,4.10
2018-08-09T16:48:23.961Z,3.97
2018-08-09T16:50:58.604Z,3.00
2018-08-09T16:53:31.279Z,3.57
2018-08-09T16:56:04.371Z,3.20
2018-08-09T16:58:34.895Z,3.13
2018-08-09T17:01:05.615Z,3.40
2018-08-09T17:03:37.115Z,3.13
2018-08-09T17:06:07.928Z,3.13
2018-08-09T17:08:36.921Z,3.30
2018-08-09T17:11:07.325Z,2.83
2018-08-09T17:13:37.313Z,2.70
2018-08-09T17:16:06.637Z,3.63
2018-08-09T17:18:36.198Z,3.90
2018-08-09T17:21:11.839Z,2.83
2018-08-09T17:23:40.229Z,3.47
2018-08-09T17:26:08.610Z,3.23
2018-08-09T17:28:37.054Z,3.23
2018-08-09T17:31:05.498Z,3.07
2018-08-09T17:33:33.883Z,2.70
2018-08-09T17:36:02.208Z,2.83
2018-08-09T17:38:30.596Z,2.87
2018-08-09T17:40:58.970Z,2.57
2018-08-09T17:43:27.352Z,3.33
2018-08-09T17:45:55.636Z,2.10
2018-08-09T17:48:24.877Z,1.53
2018-08-09T17:50:53.305Z,2.80
2018-08-09T17:53:21.659Z,1.30
2018-08-09T17:55:50.065Z,1.30
2018-08-09T17:58:18.397Z,1.10
2018-08-09T18:00:46.685Z,1.40
2018-08-09T18:03:15.134Z,2.00
2018-08-09T18:05:43.582Z,1.30
2018-08-09T18:08:11.881Z,2.00
2018-08-09T18:10:40.283Z,1.70
2018-08-09T18:13:08.632Z,1.90
2018-08-09T18:15:36.987Z,1.30
2018-08-09T18:18:05.974Z,1.50
2018-08-09T18:20:36.034Z,1.40
2018-08-09T18:23:04.447Z,1.40
2018-08-09T18:25:32.832Z,1.60
2018-08-09T18:28:01.310Z,1.70
2018-08-09T18:30:29.666Z,2.00
2018-08-09T18:32:58.167Z,1.40
2018-08-09T18:35:26.605Z,1.10
2018-08-09T18:37:54.976Z,1.10
2018-08-09T18:40:25.210Z,1.40
2018-08-09T18:42:53.596Z,1.40
2018-08-09T18:45:22.248Z,1.47
2018-08-09T18:47:50.794Z,1.97
2018-08-09T18:50:25.288Z,1.60
2018-08-09T18:52:53.831Z,1.60
2018-08-09T18:55:22.184Z,2.00
2018-08-09T18:57:50.567Z,2.23
2018-08-09T19:00:20.409Z,1.97
2018-08-09T19:02:49.560Z,2.10
2018-08-09T19:05:17.986Z,1.80
2018-08-09T19:07:46.833Z,1.60
2018-08-09T19:10:17.934Z,1.80
2018-08-09T19:12:46.365Z,1.87
2018-08-09T19:15:14.821Z,2.13
2018-08-09T19:17:43.374Z,2.50
2018-08-09T19:20:16.114Z,2.40
2018-08-09T19:22:45.006Z,2.37
2018-08-09T19:25:14.115Z,2.20
2018-08-09T19:27:42.884Z,2.17
2018-08-09T19:30:14.677Z,2.03
2018-08-09T19:32:43.065Z,2.13
2018-08-09T19:35:13.262Z,2.00
2018-08-09T19:37:42.171Z,1.70
2018-08-09T19:40:12.313Z,1.60
2018-08-09T19:42:41.026Z,1.83
2018-08-09T19:45:18.984Z,2.10
2018-08-09T19:47:48.374Z,1.57
2018-08-09T19:50:21.504Z,1.63
2018-08-09T19:52:50.031Z,1.70
2018-08-09T19:55:20.030Z,1.33
2018-08-09T19:57:49.570Z,1.77
2018-08-09T20:00:19.773Z,1.87
2018-08-09T20:02:49.094Z,1.80
2018-08-09T20:05:17.952Z,1.27
2018-08-09T20:07:46.458Z,1.97
2018-08-09T20:10:15.345Z,1.50
2018-08-09T20:12:44.942Z,1.97
2018-08-09T20:15:17.779Z,1.77
2018-08-09T20:17:47.350Z,1.70
2018-08-09T20:20:17.419Z,1.77
2018-08-09T20:22:46.150Z,1.63
2018-08-09T20:25:14.940Z,1.90
2018-08-09T20:27:43.945Z,1.97
2018-08-09T20:30:14.055Z,2.57
2018-08-09T20:32:43.031Z,2.00
2018-08-09T20:35:20.157Z,1.70
2018-08-09T20:37:49.047Z,1.90
2018-08-09T20:40:18.901Z,1.70
2018-08-09T20:42:48.468Z,1.70
2018-08-09T20:45:18.455Z,1.53
2018-08-09T20:47:46.965Z,1.80
2018-08-09T20:50:20.428Z,2.40
2018-08-09T20:52:49.437Z,2.30
2018-08-09T20:55:17.859Z,2.33
2018-08-09T20:57:46.918Z,2.30
2018-08-09T21:00:19.268Z,2.33
2018-08-09T21:02:48.944Z,2.70
2018-08-09T21:05:20.836Z,2.77
2018-08-09T21:07:50.329Z,1.80
2018-08-09T21:10:18.722Z,1.33
2018-08-09T21:12:47.110Z,1.20
2018-08-09T21:15:17.034Z,1.10
2018-08-09T21:17:45.561Z,1.17
2018-08-09T21:20:14.484Z,1.00
2018-08-09T21:22:44.384Z,1.33
2018-08-09T21:25:12.872Z,1.00
2018-08-09T21:27:41.317Z,1.27
2018-08-09T21:30:12.431Z,1.47
2018-08-09T21:32:40.801Z,1.10
2018-08-09T21:35:09.887Z,1.47
2018-08-09T21:37:38.768Z,1.10
2018-08-09T21:40:08.190Z,1.93
2018-08-09T21:42:36.529Z,1.23
2018-08-09T21:45:07.193Z,0.87
2018-08-09T21:47:35.669Z,1.17
2018-08-09T21:50:04.704Z,1.37
2018-08-09T21:52:32.993Z,1.13
2018-08-09T21:55:01.314Z,0.90
2018-08-09T21:57:29.799Z,0.80
2018-08-09T21:59:58.289Z,1.50
2018-08-09T22:02:26.662Z,1.20
2018-08-09T22:05:00.209Z,1.13
2018-08-09T22:08:33.340Z,0.97
2018-08-09T22:11:07.126Z,0.80
2018-08-09T22:13:40.765Z,1.20
2018-08-09T22:16:14.636Z,0.90
2018-08-09T22:18:48.239Z,0.90
2018-08-09T22:21:21.863Z,1.30
2018-08-09T22:23:50.316Z,0.80
2018-08-09T22:26:18.733Z,3.20
2018-08-09T22:28:47.188Z,2.27
2018-08-09T22:31:16.278Z,1.00
2018-08-09T22:33:45.933Z,1.10
2018-08-09T22:36:15.553Z,1.73
2018-08-09T22:38:45.204Z,1.70
2018-08-09T22:41:15.057Z,1.90
2018-08-09T22:43:44.825Z,1.50
2018-08-09T22:46:15.070Z,1.53
2018-08-09T22:48:44.154Z,1.53
2018-08-09T22:51:14.029Z,1.07
2018-08-09T22:53:44.596Z,1.03
2018-08-09T22:56:21.190Z,1.40
2018-08-09T22:58:57.526Z,1.30
2018-08-09T23:01:37.535Z,1.20
2018-08-09T23:04:14.466Z,1.00
2018-08-09T23:06:58.991Z,1.33
2018-08-09T23:09:43.063Z,1.00
2018-08-09T23:12:26.176Z,1.30
2018-08-09T23:14:55.296Z,1.10
2018-08-09T23:17:24.671Z,1.13
2018-08-09T23:19:54.140Z,1.50
2018-08-09T23:22:22.813Z,1.10
2018-08-09T23:24:51.383Z,1.10
2018-08-09T23:27:19.789Z,0.90
2018-08-09T23:29:48.530Z,0.97
2018-08-09T23:32:16.999Z,1.57
2018-08-09T23:34:45.409Z,1.20
2018-08-09T23:37:13.917Z,1.00
2018-08-09T23:39:42.289Z,0.90
2018-08-09T23:42:10.560Z,1.13
2018-08-09T23:44:38.857Z,1.80
2018-08-09T23:47:07.145Z,1.30
2018-08-09T23:49:35.464Z,1.40
2018-08-09T23:52:03.761Z,1.20
2018-08-09T23:54:32.105Z,1.57
2018-08-09T23:57:00.400Z,1.30
2018-08-09T23:59:28.675Z,1.60
